Time;durP1;ratioP1;P1;durP2;ratioP2;P2;SDS_P1;SDS_P2;PMS_P1;PMS_P2;Temp;Humidity;BMP_temperature;BMP_pressure;BME280_temperature;BME280_humidity;BME280_pressure;Samples;Min_cycle;Max_cycle;Signal;HPM_P1;HPM_P2
2022/10/19 00:02:16;;;;;;;;;;;9.00;99.90;;;;;;5024141;28;20032;-63
2022/10/19 00:04:43;;;;;;;;;;;9.00;99.90;;;;;;5021678;28;19929;-64
2022/10/19 00:07:10;;;;;;;;;;;9.00;99.90;;;;;;5009603;28;19992;-64
2022/10/19 00:09:37;;;;;;;;;;;9.00;99.90;;;;;;5022710;28;20378;-64
2022/10/19 00:12:03;;;;;;;;;;;8.90;99.90;;;;;;5020348;28;20303;-63
2022/10/19 00:14:30;;;;;;;;;;;9.00;99.90;;;;;;5014010;28;19925;-63
2022/10/19 00:16:57;;;;;;;;;;;8.90;99.90;;;;;;5015058;28;19929;-65
2022/10/19 00:19:25;;;;;;;;;;;8.90;99.90;;;;;;5022499;28;19954;-64
2022/10/19 00:21:52;;;;;;;;;;;8.90;99.90;;;;;;5014144;28;20497;-64
2022/10/19 00:24:19;;;;;;;;;;;8.90;99.90;;;;;;5017529;28;19932;-64
2022/10/19 00:26:46;;;;;;;;;;;8.90;99.90;;;;;;5021628;28;19980;-66
2022/10/19 00:29:13;;;;;;;;;;;8.90;99.90;;;;;;5010692;28;20400;-63
2022/10/19 00:31:40;;;;;;;;;;;8.90;99.90;;;;;;5016478;28;19995;-64
2022/10/19 00:34:07;;;;;;;;;;;8.90;99.90;;;;;;5012629;28;20354;-63
2022/10/19 00:36:36;;;;;;;;;;;8.90;99.90;;;;;;5016821;28;20541;-63
2022/10/19 00:39:03;;;;;;;;;;;8.90;99.90;;;;;;5010459;28;19929;-63
2022/10/19 00:41:31;;;;;;;;;;;8.90;99.90;;;;;;5016131;28;19933;-63
2022/10/19 00:44:06;;;;;;;;;;;9.00;99.90;;;;;;5015433;28;19930;-64
2022/10/19 00:46:35;;;;;;;;;;;9.00;99.90;;;;;;5019736;28;20423;-63
2022/10/19 00:49:05;;;;;;;;;;;9.00;99.90;;;;;;5014362;28;19936;-64
2022/10/19 00:51:38;;;;;;;;;;;9.00;99.90;;;;;;5011555;28;19945;-64
2022/10/19 00:54:05;;;;;;;;;;;9.00;99.90;;;;;;5016311;28;20366;-66
2022/10/19 00:56:32;;;;;;;;;;;9.00;99.90;;;;;;5016921;28;19925;-64
2022/10/19 00:59:01;;;;;;;;;;;9.00;99.90;;;;;;5012149;28;20104;-66
2022/10/19 01:01:28;;;;;;;;;;;9.10;99.90;;;;;;5013034;28;19951;-65
2022/10/19 01:03:55;;;;;;;;;;;9.00;99.90;;;;;;5021817;28;20038;-64
2022/10/19 01:06:22;;;;;;;;;;;9.00;99.90;;;;;;5016384;28;19929;-64
2022/10/19 01:08:49;;;;;;;;;;;9.00;99.90;;;;;;5015975;28;20016;-63
2022/10/19 01:11:16;;;;;;;;;;;9.00;99.90;;;;;;5012302;28;19935;-63
2022/10/19 01:13:45;;;;;;;;;;;8.90;99.90;;;;;;5016552;28;19929;-64
2022/10/19 01:16:23;;;;;;;;;;;8.90;99.90;;;;;;5013018;28;20382;-64
2022/10/19 01:18:58;;;;;;;;;;;8.90;99.90;;;;;;5018103;28;19926;-63
2022/10/19 01:21:29;;;;;;;;;;;8.90;99.90;;;;;;5011205;28;20052;-62
2022/10/19 01:24:18;;;;;;;;;;;8.80;99.90;;;;;;5023925;28;20097;-63
2022/10/19 01:27:03;;;;;;;;;;;8.80;99.90;;;;;;5010874;28;19959;-63
2022/10/19 01:29:48;;;;;;;;;;;8.70;99.90;;;;;;5011750;28;20412;-64
2022/10/19 01:32:20;;;;;;;;;;;8.70;99.90;;;;;;5014024;28;19936;-64
2022/10/19 01:34:56;;;;;;;;;;;8.70;99.90;;;;;;5009627;28;19925;-64
2022/10/19 01:37:23;;;;;;;;;;;8.70;99.90;;;;;;5011764;28;19925;-63
2022/10/19 01:39:52;;;;;;;;;;;8.60;99.90;;;;;;5015100;28;20396;-63
2022/10/19 01:42:19;;;;;;;;;;;8.60;99.90;;;;;;5013411;28;19950;-66
2022/10/19 01:44:50;;;;;;;;;;;8.60;99.90;;;;;;5019289;28;20446;-63
2022/10/19 01:47:19;;;;;;;;;;;8.50;99.90;;;;;;5011534;28;20421;-64
2022/10/19 01:49:48;;;;;;;;;;;8.50;99.90;;;;;;5016429;28;19945;-64
2022/10/19 01:52:17;;;;;;;;;;;8.40;99.90;;;;;;5016844;28;20032;-64
2022/10/19 01:54:46;;;;;;;;;;;8.40;99.90;;;;;;5018584;28;19931;-64
2022/10/19 01:57:16;;;;;;;;;;;8.40;99.90;;;;;;5006961;28;19947;-67
2022/10/19 01:59:44;;;;;;;;;;;8.40;99.90;;;;;;5016514;28;20466;-65
2022/10/19 02:02:12;;;;;;;;;;;8.40;99.90;;;;;;5008661;28;20402;-63
2022/10/19 02:04:39;;;;;;;;;;;8.40;99.90;;;;;;5015248;28;19929;-63
2022/10/19 02:07:07;;;;;;;;;;;8.30;99.90;;;;;;5010486;28;20287;-66
2022/10/19 02:09:34;;;;;;;;;;;8.30;99.90;;;;;;5014529;28;20525;-64
2022/10/19 02:12:03;;;;;;;;;;;8.30;99.90;;;;;;5006667;28;19929;-66
2022/10/19 02:14:35;;;;;;;;;;;8.30;99.90;;;;;;5014917;28;19936;-62
2022/10/19 02:17:08;;;;;;;;;;;8.30;99.90;;;;;;5008623;28;19926;-66
2022/10/19 02:19:35;;;;;;;;;;;8.20;99.90;;;;;;5014770;28;19926;-63
2022/10/19 02:22:01;;;;;;;;;;;8.20;99.90;;;;;;5012281;28;19945;-64
2022/10/19 02:24:28;;;;;;;;;;;8.30;99.90;;;;;;5021119;28;20056;-63
2022/10/19 02:26:55;;;;;;;;;;;8.20;99.90;;;;;;5014178;28;20447;-65
2022/10/19 02:29:22;;;;;;;;;;;8.20;99.90;;;;;;5018643;28;19933;-63
2022/10/19 02:31:49;;;;;;;;;;;8.20;99.90;;;;;;5013320;28;20023;-64
2022/10/19 02:34:15;;;;;;;;;;;8.20;99.90;;;;;;5016825;28;19964;-63
2022/10/19 02:36:42;;;;;;;;;;;8.20;99.90;;;;;;5015720;28;19926;-63
2022/10/19 02:39:09;;;;;;;;;;;8.10;99.90;;;;;;5010550;28;19980;-65
2022/10/19 02:41:38;;;;;;;;;;;8.20;99.90;;;;;;5016475;28;19935;-64
2022/10/19 02:44:10;;;;;;;;;;;8.10;99.90;;;;;;5020247;28;19929;-64
2022/10/19 02:46:42;;;;;;;;;;;8.10;99.90;;;;;;5012557;28;19926;-63
2022/10/19 02:49:10;;;;;;;;;;;8.00;99.90;;;;;;5015151;28;19929;-63
2022/10/19 02:51:39;;;;;;;;;;;8.00;99.90;;;;;;5019767;28;20020;-63
2022/10/19 02:54:06;;;;;;;;;;;8.00;99.90;;;;;;5015228;28;19936;-64
2022/10/19 02:56:33;;;;;;;;;;;8.00;99.90;;;;;;5016599;28;19948;-62
2022/10/19 02:59:01;;;;;;;;;;;7.90;99.90;;;;;;5013905;28;19933;-63
2022/10/19 03:01:27;;;;;;;;;;;7.90;99.90;;;;;;5021955;28;19937;-63
2022/10/19 03:03:54;;;;;;;;;;;7.90;99.90;;;;;;5020528;28;20051;-62
2022/10/19 03:06:21;;;;;;;;;;;7.90;99.90;;;;;;5021588;28;19936;-63
2022/10/19 03:08:48;;;;;;;;;;;7.90;99.90;;;;;;5018936;28;20031;-62
2022/10/19 03:11:15;;;;;;;;;;;7.90;99.90;;;;;;5010772;28;19933;-63
2022/10/19 03:13:42;;;;;;;;;;;7.90;99.90;;;;;;5021235;28;19952;-62
2022/10/19 03:16:10;;;;;;;;;;;7.90;99.90;;;;;;5022403;28;20233;-63
2022/10/19 03:18:37;;;;;;;;;;;7.90;99.90;;;;;;5012919;28;19929;-63
2022/10/19 03:21:05;;;;;;;;;;;7.90;99.90;;;;;;5010086;28;19927;-63
2022/10/19 03:23:32;;;;;;;;;;;7.90;99.90;;;;;;5019644;28;19983;-64
2022/10/19 03:25:59;;;;;;;;;;;7.90;99.90;;;;;;5012713;28;20251;-67
2022/10/19 03:28:25;;;;;;;;;;;7.90;99.90;;;;;;5021997;28;19925;-63
2022/10/19 03:30:52;;;;;;;;;;;7.80;99.90;;;;;;5014700;28;19925;-64
2022/10/19 03:33:19;;;;;;;;;;;7.80;99.90;;;;;;5012878;28;19964;-63
2022/10/19 03:35:46;;;;;;;;;;;7.80;99.90;;;;;;5013923;28;19996;-63
2022/10/19 03:38:13;;;;;;;;;;;7.70;99.90;;;;;;5012719;28;20028;-64
2022/10/19 03:40:40;;;;;;;;;;;7.80;99.90;;;;;;5014012;28;20031;-63
2022/10/19 03:43:06;;;;;;;;;;;7.70;99.90;;;;;;5009458;28;19983;-62
2022/10/19 03:45:33;;;;;;;;;;;7.70;99.90;;;;;;5014751;28;19945;-62
2022/10/19 03:48:00;;;;;;;;;;;7.70;99.90;;;;;;5010842;28;19929;-65
2022/10/19 03:50:27;;;;;;;;;;;7.70;99.90;;;;;;5010187;28;20024;-63
2022/10/19 03:52:54;;;;;;;;;;;7.60;99.90;;;;;;5017725;28;19995;-62
2022/10/19 03:55:21;;;;;;;;;;;7.60;99.90;;;;;;5010494;28;20276;-64
2022/10/19 03:57:47;;;;;;;;;;;7.60;99.90;;;;;;5015314;28;20377;-63
2022/10/19 04:00:14;;;;;;;;;;;7.60;99.90;;;;;;5016143;28;20592;-64
2022/10/19 04:02:41;;;;;;;;;;;7.70;99.90;;;;;;5021930;28;19933;-62
2022/10/19 04:05:08;;;;;;;;;;;7.70;99.90;;;;;;5016093;28;20036;-66
2022/10/19 04:07:35;;;;;;;;;;;7.60;99.90;;;;;;5015049;28;20262;-63
2022/10/19 04:10:02;;;;;;;;;;;7.70;99.90;;;;;;5014529;28;19930;-65
2022/10/19 04:12:29;;;;;;;;;;;7.70;99.90;;;;;;5015995;28;19939;-64
2022/10/19 04:14:56;;;;;;;;;;;7.60;99.90;;;;;;5011211;28;19926;-64
2022/10/19 04:17:24;;;;;;;;;;;7.60;99.90;;;;;;5015606;28;20390;-63
2022/10/19 04:19:50;;;;;;;;;;;7.60;99.90;;;;;;5018238;28;19929;-64
2022/10/19 04:22:17;;;;;;;;;;;7.60;99.90;;;;;;5011271;28;19955;-65
2022/10/19 04:24:44;;;;;;;;;;;7.60;99.90;;;;;;5014151;28;19936;-66
2022/10/19 04:27:11;;;;;;;;;;;7.60;99.90;;;;;;5012746;28;20028;-63
2022/10/19 04:29:38;;;;;;;;;;;7.60;99.90;;;;;;5015442;28;20003;-64
2022/10/19 04:32:05;;;;;;;;;;;7.60;99.90;;;;;;5014541;28;19929;-63
2022/10/19 04:34:31;;;;;;;;;;;7.60;99.90;;;;;;5016967;28;19940;-63
2022/10/19 04:37:03;;;;;;;;;;;7.50;99.90;;;;;;5008838;28;20016;-67
2022/10/19 04:39:30;;;;;;;;;;;7.60;99.90;;;;;;5014528;28;19926;-63
2022/10/19 04:41:56;;;;;;;;;;;7.60;99.90;;;;;;5019445;28;19975;-65
2022/10/19 04:44:23;;;;;;;;;;;7.60;99.90;;;;;;5019759;28;20015;-65
2022/10/19 04:46:50;;;;;;;;;;;7.60;99.90;;;;;;5014331;28;19929;-64
2022/10/19 04:49:17;;;;;;;;;;;7.70;99.90;;;;;;5015741;28;20289;-64
2022/10/19 04:51:45;;;;;;;;;;;7.70;99.90;;;;;;5016409;28;19939;-63
2022/10/19 04:54:12;;;;;;;;;;;7.60;99.90;;;;;;5014920;28;19959;-62
2022/10/19 04:56:39;;;;;;;;;;;7.60;99.90;;;;;;5015388;28;20395;-65
2022/10/19 04:59:06;;;;;;;;;;;7.60;99.90;;;;;;5010595;28;20043;-66
2022/10/19 05:01:33;;;;;;;;;;;7.60;99.90;;;;;;5015552;28;19944;-63
2022/10/19 05:04:01;;;;;;;;;;;7.60;99.90;;;;;;5018815;28;19933;-62
2022/10/19 05:06:29;;;;;;;;;;;7.60;99.90;;;;;;5011989;28;19935;-63
2022/10/19 05:08:56;;;;;;;;;;;7.50;99.90;;;;;;5011582;28;19939;-64
2022/10/19 05:11:22;;;;;;;;;;;7.60;99.90;;;;;;5021226;28;20384;-62
2022/10/19 05:13:49;;;;;;;;;;;7.50;99.90;;;;;;5018767;28;20020;-64
2022/10/19 05:16:17;;;;;;;;;;;7.60;99.90;;;;;;5016687;28;19940;-63
2022/10/19 05:18:48;;;;;;;;;;;7.60;99.90;;;;;;5018628;28;19925;-68
2022/10/19 05:21:16;;;;;;;;;;;7.60;99.90;;;;;;5012946;28;19992;-63
2022/10/19 05:23:43;;;;;;;;;;;7.60;99.90;;;;;;5023473;28;20008;-64
2022/10/19 05:26:11;;;;;;;;;;;7.60;99.90;;;;;;5013634;28;19926;-63
2022/10/19 05:28:38;;;;;;;;;;;7.60;99.90;;;;;;5017676;28;19966;-63
2022/10/19 05:31:06;;;;;;;;;;;7.60;99.90;;;;;;5014283;28;19936;-63
2022/10/19 05:33:33;;;;;;;;;;;7.60;99.90;;;;;;5014383;28;19961;-64
2022/10/19 05:36:08;;;;;;;;;;;7.60;99.90;;;;;;5012211;28;20328;-68
2022/10/19 05:38:35;;;;;;;;;;;7.60;99.90;;;;;;5013300;28;19925;-62
2022/10/19 05:41:02;;;;;;;;;;;7.60;99.90;;;;;;5007501;28;20232;-74
2022/10/19 05:43:29;;;;;;;;;;;7.60;99.90;;;;;;5012349;28;20069;-68
2022/10/19 05:45:55;;;;;;;;;;;7.70;99.90;;;;;;5016240;28;19931;-67
2022/10/19 05:48:22;;;;;;;;;;;7.70;99.90;;;;;;5013984;28;19937;-66
2022/10/19 05:50:53;;;;;;;;;;;7.70;99.90;;;;;;5014883;28;19936;-64
2022/10/19 05:53:20;;;;;;;;;;;7.70;99.90;;;;;;5011266;28;20244;-64
2022/10/19 05:55:46;;;;;;;;;;;7.70;99.90;;;;;;5018506;28;20341;-64
2022/10/19 05:58:13;;;;;;;;;;;7.60;99.90;;;;;;5012739;28;19929;-64
2022/10/19 06:00:40;;;;;;;;;;;7.60;99.90;;;;;;5020380;28;19929;-68
2022/10/19 06:03:07;;;;;;;;;;;7.60;99.90;;;;;;5014862;28;19988;-63
2022/10/19 06:05:36;;;;;;;;;;;7.70;99.90;;;;;;5019384;28;19975;-64
2022/10/19 06:08:03;;;;;;;;;;;7.70;99.90;;;;;;5016665;28;20016;-67
2022/10/19 06:10:30;;;;;;;;;;;7.60;99.90;;;;;;5016902;28;20359;-67
2022/10/19 06:12:57;;;;;;;;;;;7.60;99.90;;;;;;5007660;28;20013;-64
2022/10/19 06:15:23;;;;;;;;;;;7.60;99.90;;;;;;5014842;28;19929;-64
2022/10/19 06:17:50;;;;;;;;;;;7.60;99.90;;;;;;5016279;28;19990;-67
2022/10/19 06:20:17;;;;;;;;;;;7.60;99.90;;;;;;5012024;28;19929;-63
2022/10/19 06:22:44;;;;;;;;;;;7.60;99.90;;;;;;5014187;28;19937;-66
2022/10/19 06:25:11;;;;;;;;;;;7.60;99.90;;;;;;5010629;28;19929;-68
2022/10/19 06:27:40;;;;;;;;;;;7.60;99.90;;;;;;5012171;28;19936;-63
2022/10/19 06:30:08;;;;;;;;;;;7.50;99.90;;;;;;5011752;28;19975;-63
2022/10/19 06:32:34;;;;;;;;;;;7.60;99.90;;;;;;5012675;28;19939;-64
2022/10/19 06:35:01;;;;;;;;;;;7.50;99.90;;;;;;5014063;28;19933;-66
2022/10/19 06:37:28;;;;;;;;;;;7.60;99.90;;;;;;5019509;28;19930;-63
2022/10/19 06:39:54;;;;;;;;;;;7.50;99.90;;;;;;5018244;28;19925;-63
2022/10/19 06:42:21;;;;;;;;;;;7.60;99.90;;;;;;5013649;28;19957;-64
2022/10/19 06:44:48;;;;;;;;;;;7.50;99.90;;;;;;5010333;28;20301;-63
2022/10/19 06:47:15;;;;;;;;;;;7.50;99.90;;;;;;5012292;28;21437;-66
2022/10/19 06:49:42;;;;;;;;;;;7.50;99.90;;;;;;5014117;28;20287;-62
2022/10/19 06:52:09;;;;;;;;;;;7.60;99.90;;;;;;5015067;28;20117;-65
2022/10/19 06:54:35;;;;;;;;;;;7.60;99.90;;;;;;5013618;28;20009;-65
2022/10/19 06:57:02;;;;;;;;;;;7.50;99.90;;;;;;5006505;28;20318;-66
2022/10/19 06:59:29;;;;;;;;;;;7.60;99.90;;;;;;5001851;28;19959;-68
2022/10/19 07:01:56;;;;;;;;;;;7.60;99.90;;;;;;5003164;28;19926;-64
2022/10/19 07:04:22;;;;;;;;;;;7.60;99.90;;;;;;5010355;28;19930;-65
2022/10/19 07:06:49;;;;;;;;;;;7.50;99.90;;;;;;5009965;28;19933;-63
2022/10/19 07:09:17;;;;;;;;;;;7.60;99.90;;;;;;5008185;28;19933;-65
2022/10/19 07:11:44;;;;;;;;;;;7.60;99.90;;;;;;5013405;28;20497;-63
2022/10/19 07:14:11;;;;;;;;;;;7.60;99.90;;;;;;5020250;28;19979;-66
2022/10/19 07:16:38;;;;;;;;;;;7.60;99.90;;;;;;4992828;28;20011;-71
2022/10/19 07:19:05;;;;;;;;;;;7.60;99.90;;;;;;5014499;28;19929;-65
2022/10/19 07:21:32;;;;;;;;;;;7.70;99.90;;;;;;5018105;28;19952;-66
2022/10/19 07:23:59;;;;;;;;;;;7.60;99.90;;;;;;5020388;28;19925;-66
2022/10/19 07:26:28;;;;;;;;;;;7.70;99.90;;;;;;5014540;28;19925;-64
2022/10/19 07:28:55;;;;;;;;;;;7.70;99.90;;;;;;5023505;28;20051;-63
2022/10/19 07:31:23;;;;;;;;;;;7.70;99.90;;;;;;5015138;28;20027;-68
2022/10/19 07:33:51;;;;;;;;;;;7.80;99.90;;;;;;5009366;28;19929;-63
2022/10/19 07:36:18;;;;;;;;;;;7.80;99.90;;;;;;5024412;28;20275;-64
2022/10/19 07:38:45;;;;;;;;;;;7.80;99.90;;;;;;5015841;28;20020;-69
2022/10/19 07:41:15;;;;;;;;;;;7.80;99.90;;;;;;5019489;28;19943;-64
2022/10/19 07:43:43;;;;;;;;;;;7.80;99.90;;;;;;5021004;28;19933;-64
2022/10/19 07:46:11;;;;;;;;;;;7.80;99.90;;;;;;5021336;28;19933;-63
2022/10/19 07:48:38;;;;;;;;;;;7.80;99.90;;;;;;5013743;28;20018;-65
2022/10/19 07:51:06;;;;;;;;;;;7.90;99.90;;;;;;5016123;28;19936;-64
2022/10/19 07:53:33;;;;;;;;;;;7.90;99.90;;;;;;5012138;28;20364;-63
2022/10/19 07:56:07;;;;;;;;;;;7.90;99.90;;;;;;5019201;28;20039;-66
2022/10/19 07:58:35;;;;;;;;;;;7.90;99.90;;;;;;5013599;28;19945;-63
2022/10/19 08:01:06;;;;;;;;;;;7.90;99.90;;;;;;5012083;28;19930;-65
2022/10/19 08:03:33;;;;;;;;;;;7.90;99.90;;;;;;5023127;28;19949;-66
2022/10/19 08:06:20;;;;;;;;;;;7.90;99.90;;;;;;5018477;28;19937;-65
2022/10/19 08:08:47;;;;;;;;;;;7.90;99.90;;;;;;5013128;28;19925;-63
2022/10/19 08:11:16;;;;;;;;;;;7.90;99.90;;;;;;5018420;28;20015;-63
2022/10/19 08:13:43;;;;;;;;;;;7.90;99.90;;;;;;5016648;28;20009;-66
2022/10/19 08:16:20;;;;;;;;;;;7.90;99.90;;;;;;5023616;28;20007;-63
2022/10/19 08:18:48;;;;;;;;;;;7.90;99.90;;;;;;5019084;28;20020;-63
2022/10/19 08:21:15;;;;;;;;;;;7.80;99.90;;;;;;5011550;28;19933;-63
2022/10/19 08:23:42;;;;;;;;;;;7.90;99.90;;;;;;5013424;28;19928;-64
2022/10/19 08:26:09;;;;;;;;;;;7.90;99.90;;;;;;5013464;28;20021;-63
2022/10/19 08:28:35;;;;;;;;;;;7.90;99.90;;;;;;5015468;28;20505;-63
2022/10/19 08:31:09;;;;;;;;;;;7.90;99.90;;;;;;5020009;28;19935;-65
2022/10/19 08:33:36;;;;;;;;;;;7.90;99.90;;;;;;5015822;28;20003;-67
2022/10/19 08:36:04;;;;;;;;;;;8.00;99.90;;;;;;5010800;28;20116;-66
2022/10/19 08:38:30;;;;;;;;;;;7.90;99.90;;;;;;5012294;28;19933;-63
2022/10/19 08:41:02;;;;;;;;;;;7.90;99.90;;;;;;5021115;28;20359;-66
2022/10/19 08:43:33;;;;;;;;;;;8.00;99.90;;;;;;5018714;28;19952;-63
2022/10/19 08:46:05;;;;;;;;;;;8.10;99.90;;;;;;5013565;28;19929;-66
2022/10/19 08:48:35;;;;;;;;;;;8.10;99.90;;;;;;5015018;28;19926;-65
2022/10/19 08:51:04;;;;;;;;;;;8.10;99.90;;;;;;5016151;28;20012;-66
2022/10/19 08:53:49;;;;;;;;;;;8.20;99.90;;;;;;5003242;28;20283;-64
2022/10/19 08:56:19;;;;;;;;;;;8.20;99.90;;;;;;5011133;28;19929;-63
2022/10/19 08:59:25;;;;;;;;;;;8.20;99.90;;;;;;5013323;28;19930;-64
2022/10/19 09:02:12;;;;;;;;;;;8.20;99.90;;;;;;5012479;28;19930;-64
2022/10/19 09:04:40;;;;;;;;;;;8.20;99.90;;;;;;5012530;28;20593;-63
2022/10/19 09:07:13;;;;;;;;;;;8.30;99.90;;;;;;5012257;28;19944;-62
2022/10/19 09:09:42;;;;;;;;;;;8.30;99.90;;;;;;5016453;28;19934;-62
2022/10/19 09:12:11;;;;;;;;;;;8.30;99.90;;;;;;5013085;28;20451;-62
2022/10/19 09:14:57;;;;;;;;;;;8.30;99.90;;;;;;5016335;28;19961;-63
2022/10/19 09:17:24;;;;;;;;;;;8.20;99.90;;;;;;5010693;28;19925;-65
2022/10/19 09:19:51;;;;;;;;;;;8.20;99.90;;;;;;5017889;28;19932;-63
2022/10/19 09:22:19;;;;;;;;;;;8.20;99.90;;;;;;5018819;28;19933;-63
2022/10/19 09:25:15;;;;;;;;;;;8.30;99.90;;;;;;5015833;28;19929;-62
2022/10/19 09:27:44;;;;;;;;;;;8.30;99.90;;;;;;5005520;28;19932;-63
2022/10/19 09:30:16;;;;;;;;;;;8.30;99.90;;;;;;5019655;28;20020;-64
2022/10/19 09:32:43;;;;;;;;;;;8.40;99.90;;;;;;5014583;28;19948;-64
2022/10/19 09:35:13;;;;;;;;;;;8.40;99.90;;;;;;5017032;28;20021;-62
2022/10/19 09:37:43;;;;;;;;;;;8.40;99.90;;;;;;5011898;28;19926;-63
2022/10/19 09:40:16;;;;;;;;;;;8.40;99.90;;;;;;5017536;28;20051;-63
2022/10/19 09:42:42;;;;;;;;;;;8.40;99.90;;;;;;5013557;28;19951;-66
2022/10/19 09:45:15;;;;;;;;;;;8.30;99.90;;;;;;5009893;28;19925;-67
2022/10/19 09:47:44;;;;;;;;;;;8.40;99.90;;;;;;5018936;28;20478;-65
2022/10/19 09:50:21;;;;;;;;;;;8.40;99.90;;;;;;5023897;28;19933;-63
2022/10/19 09:52:49;;;;;;;;;;;8.50;99.90;;;;;;5015539;28;19930;-62
2022/10/19 09:55:19;;;;;;;;;;;8.50;99.90;;;;;;5013860;28;19925;-68
2022/10/19 09:57:47;;;;;;;;;;;8.60;99.90;;;;;;5016123;28;20363;-63
2022/10/19 10:00:17;;;;;;;;;;;8.60;99.90;;;;;;5011151;28;19941;-64
2022/10/19 10:02:54;;;;;;;;;;;8.60;99.90;;;;;;5010833;28;20015;-67
2022/10/19 10:05:35;;;;;;;;;;;8.60;99.90;;;;;;5011450;28;19984;-63
2022/10/19 10:08:04;;;;;;;;;;;8.70;99.90;;;;;;5022640;28;19929;-64
2022/10/19 10:10:37;;;;;;;;;;;8.70;99.90;;;;;;5016121;28;19926;-64
2022/10/19 10:13:04;;;;;;;;;;;8.60;99.90;;;;;;5014753;28;19931;-63
2022/10/19 10:15:40;;;;;;;;;;;8.60;99.90;;;;;;5018265;28;19943;-65
2022/10/19 10:18:10;;;;;;;;;;;8.60;99.90;;;;;;5012323;28;20546;-62
2022/10/19 10:20:39;;;;;;;;;;;8.50;99.90;;;;;;5012883;28;20266;-63
2022/10/19 10:23:06;;;;;;;;;;;8.60;99.90;;;;;;5011781;28;20759;-66
2022/10/19 10:25:33;;;;;;;;;;;8.70;99.90;;;;;;5018727;28;19928;-63
2022/10/19 10:28:03;;;;;;;;;;;8.70;99.90;;;;;;5010394;28;20315;-67
2022/10/19 10:30:32;;;;;;;;;;;8.70;99.90;;;;;;5019886;28;20266;-66
2022/10/19 10:32:59;;;;;;;;;;;8.80;99.90;;;;;;5025048;28;19936;-64
2022/10/19 10:35:46;;;;;;;;;;;8.80;99.90;;;;;;5020310;28;20009;-66
2022/10/19 10:38:15;;;;;;;;;;;8.90;99.90;;;;;;5016822;28;19930;-65
2022/10/19 10:40:50;;;;;;;;;;;9.00;99.90;;;;;;5021794;28;19932;-63
2022/10/19 10:43:18;;;;;;;;;;;9.00;99.90;;;;;;5014201;28;20032;-65
2022/10/19 10:45:46;;;;;;;;;;;9.00;99.90;;;;;;5025695;28;20364;-67
2022/10/19 10:48:42;;;;;;;;;;;9.00;99.90;;;;;;5016029;28;20020;-65
2022/10/19 10:51:32;;;;;;;;;;;9.00;99.90;;;;;;5017936;28;19953;-65
2022/10/19 10:54:07;;;;;;;;;;;9.00;99.90;;;;;;5016501;28;19929;-67
2022/10/19 10:56:39;;;;;;;;;;;8.90;99.90;;;;;;5015944;28;19930;-65
2022/10/19 10:59:20;;;;;;;;;;;8.90;99.90;;;;;;5012746;28;19948;-68
2022/10/19 11:01:53;;;;;;;;;;;8.80;99.90;;;;;;5017379;28;19960;-67
2022/10/19 11:04:22;;;;;;;;;;;8.70;99.90;;;;;;5017681;28;19995;-64
2022/10/19 11:06:54;;;;;;;;;;;8.70;99.90;;;;;;5016251;28;19930;-65
2022/10/19 11:09:24;;;;;;;;;;;8.80;99.90;;;;;;5013769;28;20390;-64
2022/10/19 11:11:54;;;;;;;;;;;8.80;99.90;;;;;;5016799;28;19925;-64
2022/10/19 11:14:29;;;;;;;;;;;8.90;99.90;;;;;;5018248;28;20404;-64
2022/10/19 11:16:57;;;;;;;;;;;8.80;99.90;;;;;;5011036;28;19935;-66
2022/10/19 11:19:54;;;;;;;;;;;8.80;99.90;;;;;;5013784;28;19925;-66
2022/10/19 11:22:39;;;;;;;;;;;8.90;99.90;;;;;;5003712;28;19933;-66
2022/10/19 11:25:25;;;;;;;;;;;8.80;99.90;;;;;;5012791;28;19929;-67
2022/10/19 11:27:51;;;;;;;;;;;8.80;99.90;;;;;;5019403;28;19925;-65
2022/10/19 11:30:18;;;;;;;;;;;8.90;99.90;;;;;;5017275;28;19929;-67
2022/10/19 11:32:51;;;;;;;;;;;9.00;99.90;;;;;;5013038;28;20011;-65
2022/10/19 11:35:24;;;;;;;;;;;9.00;99.90;;;;;;5016377;28;19988;-66
2022/10/19 11:38:00;;;;;;;;;;;9.00;99.90;;;;;;5016514;28;19939;-64
2022/10/19 11:41:05;;;;;;;;;;;9.10;99.90;;;;;;5019389;28;19929;-65
2022/10/19 11:43:57;;;;;;;;;;;9.10;99.90;;;;;;5018166;28;19940;-64
2022/10/19 11:46:30;;;;;;;;;;;9.10;99.90;;;;;;5013684;28;20024;-64
2022/10/19 11:48:59;;;;;;;;;;;9.00;99.90;;;;;;5013180;28;19979;-69
2022/10/19 11:51:26;;;;;;;;;;;8.90;99.90;;;;;;5013943;28;19963;-65
2022/10/19 11:54:12;;;;;;;;;;;8.80;99.90;;;;;;5017546;28;20316;-66
2022/10/19 11:56:49;;;;;;;;;;;8.80;99.90;;;;;;5010064;28;19929;-68
2022/10/19 11:59:36;;;;;;;;;;;8.70;99.90;;;;;;5010042;28;19937;-66
2022/10/19 12:02:18;;;;;;;;;;;8.70;99.90;;;;;;5011527;28;19925;-66
2022/10/19 12:04:51;;;;;;;;;;;8.70;99.90;;;;;;5011988;28;19937;-68
2022/10/19 12:07:23;;;;;;;;;;;8.80;99.90;;;;;;5013538;28;19925;-64
2022/10/19 12:10:10;;;;;;;;;;;8.90;99.90;;;;;;5015012;28;19929;-66
2022/10/19 12:12:42;;;;;;;;;;;8.90;99.90;;;;;;5012590;28;20312;-65
2022/10/19 12:15:09;;;;;;;;;;;8.80;99.90;;;;;;5011746;28;19929;-70
2022/10/19 12:17:37;;;;;;;;;;;8.70;99.90;;;;;;5017375;28;20530;-66
2022/10/19 12:20:19;;;;;;;;;;;8.70;99.90;;;;;;5014336;28;20012;-68
2022/10/19 12:22:47;;;;;;;;;;;8.70;99.90;;;;;;5015169;28;20007;-66
2022/10/19 12:25:15;;;;;;;;;;;8.60;99.90;;;;;;5012874;28;20016;-66
2022/10/19 12:27:45;;;;;;;;;;;8.70;99.90;;;;;;5014123;28;19947;-65
2022/10/19 12:30:12;;;;;;;;;;;8.70;99.90;;;;;;5016549;28;19941;-65
2022/10/19 12:32:46;;;;;;;;;;;8.80;99.90;;;;;;5016467;28;19929;-63
2022/10/19 12:35:30;;;;;;;;;;;8.80;99.90;;;;;;5012462;28;19925;-64
2022/10/19 12:38:02;;;;;;;;;;;8.80;99.90;;;;;;5018131;28;19929;-64
2022/10/19 12:40:35;;;;;;;;;;;8.80;99.90;;;;;;5013505;28;20356;-68
2022/10/19 12:43:07;;;;;;;;;;;8.70;99.90;;;;;;5014032;28;19935;-64
2022/10/19 12:45:46;;;;;;;;;;;8.70;99.90;;;;;;5013869;28;19933;-65
2022/10/19 12:48:14;;;;;;;;;;;8.70;99.90;;;;;;5007290;28;20040;-63
2022/10/19 12:50:47;;;;;;;;;;;8.70;99.90;;;;;;5010686;28;20298;-70
2022/10/19 12:53:27;;;;;;;;;;;8.70;99.90;;;;;;5011533;28;19932;-63
2022/10/19 12:56:00;;;;;;;;;;;8.70;99.90;;;;;;5012299;28;19926;-64
2022/10/19 12:58:32;;;;;;;;;;;8.70;99.90;;;;;;5008988;28;19939;-67
2022/10/19 13:01:00;;;;;;;;;;;8.80;99.90;;;;;;5014261;28;19929;-67
2022/10/19 13:03:32;;;;;;;;;;;8.90;99.90;;;;;;5013930;28;19964;-65
2022/10/19 13:06:00;;;;;;;;;;;8.90;99.90;;;;;;5011798;28;20008;-68
2022/10/19 13:08:40;;;;;;;;;;;9.00;99.90;;;;;;5009595;28;19925;-64
2022/10/19 13:11:13;;;;;;;;;;;9.00;99.90;;;;;;5010818;28;19929;-67
2022/10/19 13:13:51;;;;;;;;;;;9.00;99.90;;;;;;5012681;28;20049;-66
2022/10/19 13:16:39;;;;;;;;;;;8.90;99.90;;;;;;5011354;28;19925;-66
2022/10/19 13:19:11;;;;;;;;;;;8.80;99.90;;;;;;5015354;28;19999;-67
2022/10/19 13:21:57;;;;;;;;;;;8.90;99.90;;;;;;5009915;28;19983;-64
2022/10/19 13:24:23;;;;;;;;;;;9.00;99.90;;;;;;5007762;28;19989;-66
2022/10/19 13:27:02;;;;;;;;;;;8.90;99.90;;;;;;5013871;28;20012;-65
2022/10/19 13:29:41;;;;;;;;;;;8.80;99.90;;;;;;5006226;28;20383;-64
2022/10/19 13:32:26;;;;;;;;;;;8.80;99.90;;;;;;5011971;28;19983;-65
2022/10/19 13:34:53;;;;;;;;;;;8.80;99.90;;;;;;5014807;28;19952;-64
2022/10/19 13:37:20;;;;;;;;;;;8.80;99.90;;;;;;5009201;28;20027;-66
2022/10/19 13:39:48;;;;;;;;;;;8.80;99.90;;;;;;5015585;28;19925;-65
2022/10/19 13:42:22;;;;;;;;;;;8.80;99.90;;;;;;5014009;28;20021;-67
2022/10/19 13:44:51;;;;;;;;;;;8.70;99.90;;;;;;5012691;28;19929;-64
2022/10/19 13:47:32;;;;;;;;;;;8.70;99.90;;;;;;5009595;28;20011;-64
2022/10/19 13:50:13;;;;;;;;;;;8.70;99.90;;;;;;5007048;28;20405;-65
2022/10/19 13:52:58;;;;;;;;;;;8.70;99.90;;;;;;5012244;28;19930;-67
2022/10/19 13:55:26;;;;;;;;;;;8.70;99.90;;;;;;5012703;28;20013;-66
2022/10/19 13:58:16;;;;;;;;;;;8.60;99.90;;;;;;5016135;28;19937;-64
2022/10/19 14:00:46;;;;;;;;;;;8.60;99.90;;;;;;5012966;28;19941;-64
2022/10/19 14:03:22;;;;;;;;;;;8.60;99.90;;;;;;5012035;28;19931;-63
2022/10/19 14:05:55;;;;;;;;;;;8.60;99.90;;;;;;5014787;28;20341;-66
2022/10/19 14:08:54;;;;;;;;;;;8.60;99.90;;;;;;5012722;28;19999;-64
2022/10/19 14:11:27;;;;;;;;;;;8.50;99.90;;;;;;5004009;28;19929;-65
2022/10/19 14:14:26;;;;;;;;;;;8.60;99.90;;;;;;5014047;28;19929;-65
2022/10/19 14:16:54;;;;;;;;;;;8.60;99.90;;;;;;5016079;28;19931;-65
2022/10/19 14:19:28;;;;;;;;;;;8.60;99.90;;;;;;5013184;28;19925;-67
2022/10/19 14:21:56;;;;;;;;;;;8.70;99.90;;;;;;5018180;28;20676;-65
2022/10/19 14:24:33;;;;;;;;;;;8.70;99.90;;;;;;5015476;28;19925;-67
2022/10/19 14:27:02;;;;;;;;;;;8.70;99.90;;;;;;5013567;28;20056;-68
2022/10/19 14:29:29;;;;;;;;;;;8.80;99.90;;;;;;5016260;28;19970;-64
2022/10/19 14:31:57;;;;;;;;;;;8.80;99.90;;;;;;5015978;28;20032;-64
2022/10/19 14:34:24;;;;;;;;;;;8.80;99.90;;;;;;5016861;28;20344;-64
2022/10/19 14:36:51;;;;;;;;;;;8.80;99.90;;;;;;5019703;28;19925;-64
2022/10/19 14:39:22;;;;;;;;;;;8.80;99.90;;;;;;5011099;28;20449;-67
2022/10/19 14:41:52;;;;;;;;;;;8.80;99.90;;;;;;5010831;28;20352;-67
2022/10/19 14:44:26;;;;;;;;;;;8.90;99.90;;;;;;5012014;28;19982;-67
2022/10/19 14:46:53;;;;;;;;;;;8.90;99.90;;;;;;5014799;28;20036;-65
2022/10/19 14:49:20;;;;;;;;;;;8.90;99.90;;;;;;5013491;28;19933;-67
2022/10/19 14:51:52;;;;;;;;;;;8.90;99.90;;;;;;5016869;28;19934;-64